createdAt,value
2018-12-23T00:03:29.830Z,70.15
2018-12-23T00:08:43.371Z,69.42
2018-12-23T00:13:54.803Z,69.07
2018-12-23T00:19:06.320Z,68.33
2018-12-23T00:24:02.280Z,68.41
2018-12-23T00:26:33.444Z,68.45
2018-12-23T00:29:06.102Z,68.23
2018-12-23T00:31:39.060Z,68.32
2018-12-23T00:34:11.938Z,68.30
2018-12-23T00:36:44.764Z,68.14
2018-12-23T00:39:17.917Z,68.42
2018-12-23T00:41:50.786Z,68.37
2018-12-23T00:45:17.275Z,68.22
2018-12-23T00:47:48.600Z,68.12
2018-12-23T00:50:21.280Z,68.08
2018-12-23T00:52:52.680Z,67.92
2018-12-23T00:55:25.836Z,67.88
2018-12-23T00:57:58.718Z,67.92
2018-12-23T01:00:31.502Z,67.75
2018-12-23T01:03:04.440Z,68.49
2018-12-23T01:05:37.281Z,68.59
2018-12-23T01:08:08.878Z,68.59
2018-12-23T01:10:41.952Z,69.18
2018-12-23T01:13:15.043Z,69.17
2018-12-23T01:15:48.280Z,69.47
2018-12-23T01:18:19.635Z,69.30
2018-12-23T01:20:52.405Z,69.57
2018-12-23T01:23:25.415Z,69.57
2018-12-23T01:25:58.337Z,69.72
2018-12-23T01:28:31.297Z,69.72
2018-12-23T01:31:04.292Z,69.56
2018-12-23T01:33:36.076Z,69.34
2018-12-23T01:36:09.089Z,69.62
2018-12-23T01:38:41.798Z,69.79
2018-12-23T01:41:14.901Z,69.67
2018-12-23T01:43:48.778Z,69.82
2018-12-23T01:46:21.758Z,69.85
2018-12-23T01:48:54.330Z,69.92
2018-12-23T01:51:27.306Z,70.00
2018-12-23T01:53:59.013Z,70.20
2018-12-23T01:56:31.772Z,70.05
2018-12-23T01:59:04.950Z,69.82
2018-12-23T02:01:37.774Z,69.65
2018-12-23T02:04:10.719Z,69.82
2018-12-23T02:06:43.686Z,69.86
2018-12-23T02:09:16.522Z,69.85
2018-12-23T02:11:49.688Z,70.10
2018-12-23T02:14:22.716Z,70.10
2018-12-23T02:16:55.704Z,70.13
2018-12-23T02:19:28.390Z,70.11
2018-12-23T02:22:00.878Z,70.11
2018-12-23T02:24:33.608Z,70.15
2018-12-23T02:27:06.487Z,70.04
2018-12-23T02:29:39.291Z,70.04
2018-12-23T02:32:10.886Z,69.92
2018-12-23T02:34:43.890Z,69.54
2018-12-23T02:37:17.287Z,69.73
2018-12-23T02:39:49.115Z,69.81
2018-12-23T02:42:22.127Z,69.59
2018-12-23T02:44:53.881Z,69.72
2018-12-23T02:47:27.019Z,69.85
2018-12-23T02:50:01.286Z,69.76
2018-12-23T02:52:32.705Z,69.88
2018-12-23T02:55:05.901Z,69.85
2018-12-23T02:57:38.444Z,70.28
2018-12-23T03:00:11.807Z,70.47
2018-12-23T03:02:44.964Z,70.50
2018-12-23T03:05:18.772Z,70.45
2018-12-23T03:07:51.702Z,70.50
2018-12-23T03:10:24.721Z,70.84
2018-12-23T03:12:57.893Z,71.62
2018-12-23T03:15:31.146Z,71.88
2018-12-23T03:18:04.303Z,72.41
2018-12-23T03:20:36.970Z,72.95
2018-12-23T03:23:10.285Z,72.95
2018-12-23T03:25:41.832Z,72.65
2018-12-23T03:28:14.965Z,72.34
2018-12-23T03:31:53.304Z,72.22
2018-12-23T03:35:03.294Z,71.90
2018-12-23T03:37:54.792Z,72.23
2018-12-23T03:41:06.301Z,71.94
2018-12-23T03:44:17.812Z,72.24
2018-12-23T03:50:39.370Z,72.61
2018-12-23T03:53:30.933Z,72.81
2018-12-23T03:56:22.799Z,72.68
2018-12-23T03:59:33.954Z,73.57
2018-12-23T04:06:02.299Z,73.77
2018-12-23T04:09:13.952Z,74.38
2018-12-23T04:15:36.298Z,75.08
2018-12-23T04:18:07.315Z,75.08
2018-12-23T04:21:17.287Z,75.18
2018-12-23T04:24:28.742Z,75.31
2018-12-23T04:30:36.890Z,74.69
2018-12-23T04:33:48.364Z,75.00
2018-12-23T04:39:56.127Z,74.88
2018-12-23T05:00:35.911Z,75.58
2018-12-23T05:03:47.702Z,74.70
2018-12-23T05:19:59.291Z,73.40
2018-12-23T05:23:09.298Z,73.40
2018-12-23T05:26:20.708Z,73.40
2018-12-23T05:29:32.294Z,73.26
2018-12-23T05:32:23.966Z,73.59
2018-12-23T05:50:45.500Z,76.35
2018-12-23T05:56:59.294Z,76.31
2018-12-23T06:00:09.292Z,76.31
2018-12-23T06:03:00.973Z,76.61
2018-12-23T06:09:28.657Z,76.50
2018-12-23T06:12:20.433Z,76.33
2018-12-23T06:15:11.804Z,76.32
2018-12-23T06:18:23.388Z,76.15
2018-12-23T06:21:34.956Z,76.12
2018-12-23T06:24:46.745Z,75.74
2018-12-23T06:34:04.300Z,75.16
2018-12-23T06:37:14.300Z,74.89
2018-12-23T06:40:25.962Z,74.73
2018-12-23T06:51:20.913Z,74.71
2018-12-23T06:54:32.434Z,74.43
2018-12-23T07:12:26.292Z,73.42
2018-12-23T07:15:16.304Z,73.14
2018-12-23T07:21:45.295Z,73.12
2018-12-23T07:34:28.902Z,72.34
2018-12-23T07:41:10.419Z,71.55
2018-12-23T07:44:00.435Z,71.62
2018-12-23T08:03:12.965Z,70.78
2018-12-23T08:06:24.483Z,70.79
2018-12-23T08:09:34.310Z,70.88
2018-12-23T08:12:05.699Z,70.88
2018-12-23T08:21:12.381Z,70.64
2018-12-23T08:24:02.313Z,70.59
2018-12-23T08:27:12.297Z,70.20
2018-12-23T08:33:53.618Z,69.40
2018-12-23T08:40:20.303Z,69.47
2018-12-23T08:43:31.454Z,68.99
2018-12-23T08:46:02.872Z,68.74
2018-12-23T08:52:24.439Z,67.58
2018-12-23T08:58:44.315Z,67.41
2018-12-23T09:01:34.304Z,66.91
2018-12-23T09:07:40.778Z,67.37
2018-12-23T09:10:52.541Z,67.32
2018-12-23T09:13:45.749Z,66.55
2018-12-23T09:26:19.717Z,66.26
2018-12-23T09:35:58.893Z,65.30
2018-12-23T09:38:50.428Z,65.35
2018-12-23T09:41:40.366Z,65.15
2018-12-23T09:44:30.337Z,65.68
2018-12-23T09:47:14.299Z,64.62
2018-12-23T09:50:05.704Z,64.65
2018-12-23T09:53:17.297Z,64.07
2018-12-23T09:55:50.107Z,64.07
2018-12-23T09:58:22.921Z,63.79
2018-12-23T10:00:55.324Z,63.85
2018-12-23T10:03:27.788Z,63.37
2018-12-23T10:06:01.299Z,63.58
2018-12-23T10:08:34.012Z,63.58
2018-12-23T10:11:06.790Z,63.14
2018-12-23T10:13:39.435Z,62.29
2018-12-23T10:16:12.290Z,62.08
2018-12-23T10:18:44.953Z,62.07
2018-12-23T10:21:17.858Z,61.84
2018-12-23T10:23:50.791Z,61.69
2018-12-23T10:26:23.733Z,61.90
2018-12-23T10:28:56.417Z,61.72
2018-12-23T10:31:28.921Z,61.49
2018-12-23T10:34:01.687Z,61.49
2018-12-23T10:36:34.405Z,61.20
2018-12-23T10:39:08.445Z,61.20
2018-12-23T10:41:41.291Z,61.19
2018-12-23T10:44:12.299Z,61.30
2018-12-23T10:46:43.804Z,61.07
2018-12-23T10:49:17.416Z,60.64
2018-12-23T10:51:50.126Z,60.25
2018-12-23T10:54:22.722Z,60.04
2018-12-23T10:56:55.517Z,60.32
2018-12-23T10:59:28.010Z,60.32
2018-12-23T11:02:00.964Z,60.40
2018-12-23T11:04:33.418Z,60.77
2018-12-23T11:07:05.014Z,61.00
2018-12-23T11:09:37.898Z,61.51
2018-12-23T11:12:10.415Z,61.71
2018-12-23T11:14:42.917Z,61.89
2018-12-23T11:17:15.404Z,61.73
2018-12-23T11:19:48.324Z,62.16
2018-12-23T11:22:19.626Z,62.16
2018-12-23T11:24:52.289Z,61.73
2018-12-23T11:27:24.946Z,61.73
2018-12-23T11:29:57.724Z,61.93
2018-12-23T11:32:30.317Z,61.89
2018-12-23T11:35:01.625Z,62.13
2018-12-23T11:37:34.752Z,61.68
2018-12-23T11:40:08.142Z,61.81
2018-12-23T11:42:41.050Z,61.81
2018-12-23T11:45:13.868Z,61.79
2018-12-23T11:47:46.679Z,61.78
2018-12-23T11:50:17.866Z,61.96
2018-12-23T11:52:50.679Z,61.44
2018-12-23T11:55:23.125Z,61.44
2018-12-23T11:57:55.942Z,61.50
2018-12-23T12:00:28.767Z,61.83
2018-12-23T12:03:01.368Z,61.57
2018-12-23T12:05:33.909Z,61.52
2018-12-23T12:08:06.460Z,61.42
2018-12-23T12:10:38.938Z,61.13
2018-12-23T12:16:34.939Z,61.14
2018-12-23T12:22:33.413Z,60.73
2018-12-23T12:25:24.959Z,60.97
2018-12-23T12:27:57.944Z,60.97
2018-12-23T12:30:30.351Z,60.76
2018-12-23T12:33:01.714Z,61.13
2018-12-23T12:35:34.322Z,61.26
2018-12-23T12:38:06.947Z,61.26
2018-12-23T12:40:39.737Z,61.10
2018-12-23T12:43:12.341Z,60.89
2018-12-23T12:45:44.793Z,60.80
2018-12-23T12:48:17.426Z,60.88
2018-12-23T12:53:38.850Z,61.26
2018-12-23T12:56:50.215Z,61.37
2018-12-23T12:59:41.462Z,61.37
2018-12-23T13:02:14.293Z,62.11
2018-12-23T13:09:47.116Z,62.53
2018-12-23T13:12:19.958Z,62.53
2018-12-23T13:15:55.823Z,62.96
2018-12-23T13:18:47.278Z,63.20
2018-12-23T13:21:19.955Z,63.20
2018-12-23T13:23:53.073Z,62.92
2018-12-23T13:26:25.691Z,63.32
2018-12-23T13:28:58.462Z,63.57
2018-12-23T13:31:29.866Z,63.66
2018-12-23T13:34:02.700Z,64.00
2018-12-23T13:36:35.444Z,64.05
2018-12-23T13:39:12.115Z,64.29
2018-12-23T13:41:55.303Z,64.31
2018-12-23T13:45:02.489Z,64.20
2018-12-23T13:48:51.138Z,64.81
2018-12-23T13:52:20.254Z,64.91
2018-12-23T13:55:37.914Z,64.87
2018-12-23T13:58:57.946Z,64.66
2018-12-23T14:02:28.413Z,64.58
2018-12-23T14:05:18.298Z,64.79
2018-12-23T14:08:25.668Z,65.01
2018-12-23T14:11:57.279Z,65.84
2018-12-23T14:14:29.946Z,66.46
2018-12-23T14:17:03.275Z,66.46
2018-12-23T14:19:35.783Z,66.06
2018-12-23T14:22:08.937Z,66.76
2018-12-23T14:24:41.619Z,67.22
2018-12-23T14:27:14.410Z,67.22
2018-12-23T14:29:47.333Z,67.50
2018-12-23T14:32:18.859Z,67.93
2018-12-23T14:34:51.657Z,67.73
2018-12-23T14:37:24.298Z,68.28
2018-12-23T14:39:55.695Z,68.28
2018-12-23T14:42:28.286Z,68.54
2018-12-23T14:44:59.577Z,68.67
2018-12-23T14:47:32.362Z,68.46
2018-12-23T14:50:03.860Z,68.46
2018-12-23T14:52:36.715Z,68.51
2018-12-23T14:55:09.665Z,68.58
2018-12-23T14:57:42.410Z,68.72
2018-12-23T15:00:15.089Z,69.12
2018-12-23T15:02:47.785Z,69.25
2018-12-23T15:05:23.705Z,69.01
2018-12-23T15:07:56.723Z,69.01
2018-12-23T15:10:29.461Z,69.14
2018-12-23T15:13:00.864Z,69.13
2018-12-23T15:15:33.777Z,68.97
2018-12-23T15:18:06.743Z,68.88
2018-12-23T15:20:39.372Z,69.25
2018-12-23T15:23:11.947Z,68.78
2018-12-23T15:25:44.755Z,68.79
2018-12-23T15:28:17.406Z,69.26
2018-12-23T15:30:50.105Z,68.86
2018-12-23T15:33:21.858Z,69.22
2018-12-23T15:35:54.754Z,70.51
2018-12-23T15:38:29.513Z,70.51
2018-12-23T15:41:02.292Z,70.90
2018-12-23T15:43:33.544Z,70.90
2018-12-23T15:49:30.444Z,70.79
2018-12-23T15:52:02.303Z,70.91
2018-12-23T15:54:33.872Z,71.18
2018-12-23T16:00:41.479Z,71.65
2018-12-23T16:03:14.337Z,71.74
2018-12-23T16:05:47.291Z,71.74
2018-12-23T16:08:19.891Z,72.12
2018-12-23T16:10:52.716Z,72.26
2018-12-23T16:13:25.462Z,72.29
2018-12-23T16:15:58.369Z,72.38
2018-12-23T16:18:31.141Z,72.38
2018-12-23T16:21:04.089Z,72.34
2018-12-23T16:23:36.953Z,72.76
2018-12-23T16:26:09.710Z,72.94
2018-12-23T16:28:42.711Z,72.92
2018-12-23T16:31:15.701Z,73.15
2018-12-23T16:33:48.332Z,73.17
2018-12-23T16:36:19.634Z,73.21
2018-12-23T16:38:52.368Z,73.32
2018-12-23T16:41:25.117Z,73.53
2018-12-23T16:43:57.766Z,74.09
2018-12-23T16:46:30.429Z,73.76
2018-12-23T16:49:03.279Z,73.98
2018-12-23T16:51:34.423Z,73.78
2018-12-23T16:54:07.280Z,73.78
2018-12-23T16:56:38.386Z,74.18
2018-12-23T16:59:09.813Z,74.21
2018-12-23T17:01:42.424Z,74.49
2018-12-23T17:04:15.297Z,71.06
2018-12-23T17:06:46.335Z,71.06
2018-12-23T17:09:19.085Z,70.62
2018-12-23T17:11:52.112Z,69.98
2018-12-23T17:15:04.455Z,69.95
2018-12-23T17:17:37.334Z,69.41
2018-12-23T17:20:13.786Z,69.41
2018-12-23T17:22:46.511Z,69.40
2018-12-23T17:25:19.162Z,69.21
2018-12-23T17:27:51.959Z,69.49
2018-12-23T17:30:24.709Z,69.46
2018-12-23T17:32:57.709Z,68.66
2018-12-23T17:35:30.412Z,69.23
2018-12-23T17:38:03.115Z,69.64
2018-12-23T17:40:35.949Z,69.63
2018-12-23T17:43:08.697Z,69.30
2018-12-23T17:45:41.440Z,69.86
2018-12-23T17:48:15.778Z,70.07
2018-12-23T17:50:48.685Z,69.47
2018-12-23T17:53:21.480Z,69.75
2018-12-23T17:55:54.148Z,69.72
2018-12-23T17:58:25.446Z,69.58
2018-12-23T18:00:58.446Z,69.84
2018-12-23T18:03:31.299Z,69.84
2018-12-23T18:06:04.084Z,70.19
2018-12-23T18:08:35.874Z,70.13
2018-12-23T18:11:08.705Z,70.50
2018-12-23T18:13:41.428Z,70.50
2018-12-23T18:16:14.378Z,70.77
2018-12-23T18:18:46.953Z,70.77
2018-12-23T18:21:19.713Z,70.65
2018-12-23T18:23:52.718Z,70.44
2018-12-23T18:26:25.479Z,70.30
2018-12-23T18:28:58.288Z,70.50
2018-12-23T18:31:29.713Z,70.50
2018-12-23T18:34:02.785Z,70.60
2018-12-23T18:36:35.692Z,70.79
2018-12-23T18:39:10.366Z,70.60
2018-12-23T18:41:43.094Z,70.75
2018-12-23T18:44:16.097Z,70.90
2018-12-23T18:46:48.724Z,71.14
2018-12-23T18:49:21.708Z,71.12
2018-12-23T18:51:54.691Z,71.43
2018-12-23T18:54:27.448Z,71.48
2018-12-23T18:57:09.951Z,71.28
2018-12-23T18:59:47.725Z,71.28
2018-12-23T19:02:36.471Z,71.06
2018-12-23T19:05:09.368Z,71.42
2018-12-23T19:23:44.728Z,71.60
2018-12-23T19:27:05.742Z,71.63
2018-12-23T19:33:56.280Z,71.79
2018-12-23T19:37:04.585Z,71.79
2018-12-23T19:40:16.386Z,71.61
2018-12-23T19:43:45.122Z,71.36
2018-12-23T19:47:13.941Z,71.36
